createdAt,value
2019-05-09T00:01:28.824Z,95160.86
2019-05-09T00:03:58.220Z,95160.78
2019-05-09T00:06:27.545Z,95154.04
2019-05-09T00:08:56.910Z,95153.56
2019-05-09T00:11:26.216Z,95149.47
2019-05-09T00:13:55.561Z,95140.95
2019-05-09T00:16:24.891Z,95151.42
2019-05-09T00:18:54.388Z,95147.95
2019-05-09T00:21:33.255Z,95150.09
2019-05-09T00:24:03.491Z,95153.09
2019-05-09T00:26:33.882Z,95154.18
2019-05-09T00:29:08.456Z,95157.11
2019-05-09T00:31:45.460Z,95150.16
2019-05-09T00:34:23.417Z,95154.50
2019-05-09T00:36:53.976Z,95154.25
2019-05-09T00:39:23.695Z,95152.05
2019-05-09T00:41:53.862Z,95152.37
2019-05-09T00:44:26.789Z,95150.70
2019-05-09T00:47:05.435Z,95150.34
2019-05-09T00:49:34.832Z,95149.22
2019-05-09T00:52:04.131Z,95148.75
2019-05-09T00:54:33.642Z,95146.14
2019-05-09T00:57:03.348Z,95139.44
2019-05-09T00:59:33.355Z,95156.45
2019-05-09T01:02:03.889Z,95132.47
2019-05-09T01:04:33.588Z,95128.19
2019-05-09T01:07:03.599Z,95127.10
2019-05-09T01:09:33.474Z,95137.03
2019-05-09T01:12:03.995Z,95136.47
2019-05-09T01:14:34.082Z,95128.42
2019-05-09T01:17:04.274Z,95127.45
2019-05-09T01:19:34.041Z,95125.17
2019-05-09T01:22:03.870Z,95126.83
2019-05-09T01:24:33.921Z,95122.30
2019-05-09T01:27:03.791Z,95122.87
2019-05-09T01:29:33.856Z,95126.38
2019-05-09T01:32:06.050Z,95127.44
2019-05-09T01:34:35.678Z,95120.52
2019-05-09T01:37:09.258Z,95123.52
2019-05-09T01:39:38.726Z,95121.00
2019-05-09T01:42:08.078Z,95116.66
2019-05-09T01:44:37.394Z,95123.66
2019-05-09T01:47:08.143Z,95116.91
2019-05-09T01:49:37.529Z,95118.38
2019-05-09T01:52:06.846Z,95117.48
2019-05-09T01:54:38.066Z,95115.19
2019-05-09T01:57:07.406Z,95120.29
2019-05-09T01:59:36.780Z,95109.58
2019-05-09T02:02:08.579Z,95118.44
2019-05-09T02:04:37.247Z,95115.02
2019-05-09T02:07:06.556Z,95119.17
2019-05-09T02:09:35.983Z,95115.28
2019-05-09T02:12:05.386Z,95112.73
2019-05-09T02:14:43.522Z,95107.73
2019-05-09T02:17:37.571Z,95117.83
2019-05-09T02:20:07.427Z,95117.67
2019-05-09T02:22:37.039Z,95110.30
2019-05-09T02:25:09.236Z,95107.59
2019-05-09T02:27:38.596Z,95110.75
2019-05-09T02:30:09.877Z,95123.75
2019-05-09T02:32:39.240Z,95113.81
2019-05-09T02:35:09.854Z,95114.71
2019-05-09T02:37:39.351Z,95113.79
2019-05-09T02:40:10.334Z,95113.38
2019-05-09T02:42:40.279Z,95110.98
2019-05-09T02:45:10.254Z,95121.89
2019-05-09T02:47:39.588Z,95116.55
2019-05-09T02:50:09.964Z,95114.97
2019-05-09T02:52:40.136Z,95118.85
2019-05-09T02:55:10.794Z,95123.24
2019-05-09T02:57:40.356Z,95122.16
2019-05-09T03:00:28.799Z,95118.14
2019-05-09T03:03:09.332Z,95111.68
2019-05-09T03:05:38.360Z,95100.81
2019-05-09T03:08:09.305Z,95084.56
2019-05-09T03:10:39.008Z,95098.78
2019-05-09T03:13:09.251Z,95104.42
2019-05-09T03:15:39.523Z,95106.94
2019-05-09T03:18:09.367Z,95108.66
2019-05-09T03:21:01.161Z,95105.30
2019-05-09T03:23:30.548Z,95113.59
2019-05-09T03:25:59.951Z,95115.11
2019-05-09T03:28:42.173Z,95120.98
2019-05-09T03:31:12.350Z,95112.34
2019-05-09T03:33:41.726Z,95114.47
2019-05-09T03:36:11.049Z,95102.17
2019-05-09T03:38:40.400Z,95102.17
2019-05-09T03:41:09.774Z,95097.03
2019-05-09T03:43:39.159Z,95100.55
2019-05-09T03:46:19.268Z,95102.37
2019-05-09T03:48:51.673Z,95099.27
2019-05-09T03:51:21.059Z,95102.43
2019-05-09T03:53:50.456Z,95112.00
2019-05-09T03:56:23.731Z,95107.48
2019-05-09T03:58:53.069Z,95109.23
2019-05-09T04:01:22.476Z,95119.84
2019-05-09T04:03:51.865Z,95114.48
2019-05-09T04:06:21.219Z,95110.41
2019-05-09T04:08:53.836Z,95108.08
2019-05-09T04:11:21.646Z,95104.86
2019-05-09T04:13:58.076Z,95101.87
2019-05-09T04:16:27.714Z,95089.04
2019-05-09T04:18:58.199Z,95090.27
2019-05-09T04:21:28.079Z,95092.20
2019-05-09T04:23:58.497Z,95087.97
2019-05-09T04:27:02.234Z,95086.23
2019-05-09T04:29:31.582Z,95088.26
2019-05-09T04:32:00.988Z,95085.55
2019-05-09T04:34:30.353Z,95080.66
2019-05-09T04:36:59.681Z,95078.17
2019-05-09T04:39:29.024Z,95078.52
2019-05-09T04:42:03.664Z,95070.05
2019-05-09T04:44:34.919Z,95069.75
2019-05-09T04:47:04.263Z,95065.41
2019-05-09T04:49:39.611Z,95061.59
2019-05-09T04:52:04.652Z,95062.05
2019-05-09T04:54:34.003Z,95058.90
2019-05-09T04:57:03.357Z,95065.64
2019-05-09T04:59:32.657Z,95056.44
2019-05-09T05:02:13.638Z,95059.89
2019-05-09T05:04:42.990Z,95063.80
2019-05-09T05:07:12.732Z,95065.73
2019-05-09T05:09:42.094Z,95058.78
2019-05-09T05:12:11.451Z,95054.97
2019-05-09T05:14:40.843Z,95049.83
2019-05-09T05:17:11.530Z,95039.94
2019-05-09T05:19:41.021Z,95033.99
2019-05-09T05:22:29.274Z,95038.81
2019-05-09T05:25:02.182Z,95042.18
2019-05-09T05:27:31.530Z,95044.88
2019-05-09T05:30:01.028Z,95044.73
2019-05-09T05:32:48.804Z,95040.66
2019-05-09T05:35:37.640Z,95040.63
2019-05-09T05:38:08.555Z,95045.45
2019-05-09T05:40:45.195Z,95035.48
2019-05-09T05:43:09.336Z,95033.67
2019-05-09T05:45:48.762Z,95031.42
2019-05-09T05:48:22.497Z,95024.73
2019-05-09T05:50:51.841Z,95021.88
2019-05-09T05:53:21.222Z,95014.61
2019-05-09T05:55:52.749Z,95024.80
2019-05-09T05:58:21.764Z,95018.59
2019-05-09T06:00:51.214Z,95029.54
2019-05-09T06:03:20.539Z,95030.11
2019-05-09T06:05:51.798Z,95029.13
2019-05-09T06:08:21.371Z,95025.77
2019-05-09T06:10:50.761Z,95032.50
2019-05-09T06:13:20.179Z,95034.36
2019-05-09T06:15:49.517Z,95035.02
2019-05-09T06:18:19.160Z,95030.90
2019-05-09T06:20:48.945Z,95028.82
2019-05-09T06:23:18.413Z,95019.79
2019-05-09T06:25:48.410Z,95016.08
2019-05-09T06:28:18.357Z,95013.95
2019-05-09T06:31:08.263Z,95001.84
2019-05-09T06:34:19.009Z,95007.66
2019-05-09T06:37:19.922Z,95003.61
2019-05-09T06:40:28.886Z,95000.69
2019-05-09T06:43:32.104Z,95001.70
2019-05-09T06:47:13.559Z,95000.58
2019-05-09T06:50:24.020Z,94997.32
2019-05-09T06:53:31.475Z,94996.81
2019-05-09T06:56:39.109Z,94992.73
2019-05-09T06:59:58.292Z,94989.83
2019-05-09T07:03:14.791Z,94985.84
2019-05-09T07:06:17.812Z,94974.18
2019-05-09T07:09:17.747Z,94982.20
2019-05-09T07:12:27.394Z,94977.90
2019-05-09T07:15:35.014Z,94968.80
2019-05-09T07:18:18.378Z,94967.29
2019-05-09T07:21:15.769Z,94969.38
2019-05-09T07:24:23.241Z,94967.17
2019-05-09T07:27:36.034Z,94962.25
2019-05-09T07:31:04.498Z,94954.84
2019-05-09T07:34:08.705Z,94951.49
2019-05-09T07:37:18.490Z,94950.45
2019-05-09T07:40:18.060Z,94951.23
2019-05-09T07:43:17.851Z,94945.70
2019-05-09T07:46:12.429Z,94942.64
2019-05-09T07:49:04.771Z,94933.97
2019-05-09T07:52:12.221Z,94934.34
2019-05-09T07:55:17.838Z,94926.95
2019-05-09T07:58:24.599Z,94931.08
2019-05-09T08:01:38.524Z,94927.02
2019-05-09T08:04:25.141Z,94925.72
2019-05-09T08:07:17.678Z,94928.34
2019-05-09T08:10:14.844Z,94921.89
2019-05-09T08:13:22.246Z,94912.84
2019-05-09T08:16:28.534Z,94913.21
2019-05-09T08:19:20.370Z,94907.95
2019-05-09T08:22:21.279Z,94905.95
2019-05-09T08:25:18.395Z,94898.70
2019-05-09T08:28:04.908Z,94905.66
2019-05-09T08:31:28.113Z,94900.34
2019-05-09T08:34:20.283Z,94902.50
2019-05-09T08:37:17.578Z,94900.39
2019-05-09T08:40:12.772Z,94901.33
2019-05-09T08:43:10.100Z,94895.43
2019-05-09T08:46:09.922Z,94889.64
2019-05-09T08:49:07.962Z,94900.64
2019-05-09T08:52:15.884Z,94892.52
2019-05-09T08:55:10.446Z,94890.77
2019-05-09T08:58:19.766Z,94882.65
2019-05-09T09:01:54.216Z,94871.81
2019-05-09T09:04:32.682Z,94878.89
2019-05-09T09:07:40.104Z,94865.89
2019-05-09T09:10:48.853Z,94859.23
2019-05-09T09:14:07.709Z,94864.35
2019-05-09T09:16:48.076Z,94862.21
2019-05-09T09:19:48.940Z,94859.30
2019-05-09T09:22:58.295Z,94859.91
2019-05-09T09:26:08.425Z,94850.84
2019-05-09T09:29:08.487Z,94861.23
2019-05-09T09:32:18.675Z,94855.56
2019-05-09T09:35:27.621Z,94858.56
2019-05-09T09:38:34.347Z,94853.19
2019-05-09T09:41:41.763Z,94850.52
2019-05-09T09:44:58.552Z,94848.66
2019-05-09T09:48:09.300Z,94843.96
2019-05-09T09:51:07.956Z,94847.14
2019-05-09T09:53:58.210Z,94831.36
2019-05-09T09:57:14.979Z,94833.86
2019-05-09T09:59:55.248Z,94829.73
2019-05-09T10:02:58.700Z,94817.53
2019-05-09T10:06:02.590Z,94821.74
2019-05-09T10:08:58.547Z,94818.45
2019-05-09T10:12:08.862Z,94817.94
2019-05-09T10:15:28.079Z,94813.86
2019-05-09T10:19:08.259Z,94813.80
2019-05-09T10:22:26.701Z,94801.86
2019-05-09T10:25:08.268Z,94800.66
2019-05-09T10:28:21.438Z,94796.88
2019-05-09T10:31:39.237Z,94798.09
2019-05-09T10:34:41.909Z,94796.52
2019-05-09T10:37:39.526Z,94791.30
2019-05-09T10:40:42.553Z,94791.73
2019-05-09T10:44:08.358Z,94780.94
2019-05-09T10:47:02.075Z,94786.78
2019-05-09T10:49:31.171Z,94782.17
2019-05-09T10:52:03.366Z,94784.37
2019-05-09T10:54:34.164Z,94786.03
2019-05-09T10:57:03.501Z,94784.51
2019-05-09T10:59:34.089Z,94781.87
2019-05-09T11:02:03.458Z,94784.98
2019-05-09T11:04:32.931Z,94777.62
2019-05-09T11:07:02.281Z,94779.34
2019-05-09T11:09:31.725Z,94779.91
2019-05-09T11:12:01.433Z,94783.96
2019-05-09T11:14:36.911Z,94525.65
2019-05-09T11:17:10.922Z,94772.91
2019-05-09T11:19:33.441Z,94776.36
2019-05-09T11:22:02.842Z,94774.52
2019-05-09T11:24:43.008Z,94776.45
2019-05-09T11:27:04.549Z,94773.73
2019-05-09T11:29:33.984Z,94776.00
2019-05-09T11:32:03.325Z,94777.52
2019-05-09T11:34:32.711Z,94771.83
2019-05-09T11:37:02.062Z,94766.92
2019-05-09T11:39:38.188Z,94774.19
2019-05-09T11:42:03.745Z,94770.86
2019-05-09T11:44:33.141Z,94766.56
2019-05-09T11:47:02.493Z,94766.56
2019-05-09T11:49:32.060Z,94773.92
2019-05-09T11:52:01.388Z,94777.82
2019-05-09T11:54:32.793Z,94781.55
2019-05-09T11:57:02.708Z,94779.61
2019-05-09T11:59:32.119Z,94768.92
2019-05-09T12:02:01.458Z,94780.39
2019-05-09T12:04:30.827Z,94780.16
2019-05-09T12:07:00.632Z,94777.94
2019-05-09T12:09:30.008Z,94782.77
2019-05-09T12:11:59.385Z,94787.83
2019-05-09T12:14:28.774Z,94785.63
2019-05-09T12:17:00.609Z,94784.31
2019-05-09T12:19:30.011Z,94778.55
2019-05-09T12:21:59.780Z,94774.89
2019-05-09T12:24:29.742Z,94774.14
2019-05-09T12:27:02.856Z,94773.70
2019-05-09T12:29:30.265Z,94768.33
2019-05-09T12:31:59.601Z,94766.84
2019-05-09T12:34:31.138Z,94761.41
2019-05-09T12:37:00.928Z,94762.88
2019-05-09T12:39:30.309Z,94755.14
2019-05-09T12:42:01.524Z,94753.88
2019-05-09T12:44:31.252Z,94751.91
2019-05-09T12:47:00.604Z,94756.30
2019-05-09T12:49:30.338Z,94748.55
2019-05-09T12:51:59.674Z,94732.66
2019-05-09T12:54:29.055Z,94728.70
2019-05-09T12:56:59.266Z,94714.77
2019-05-09T12:59:38.125Z,94712.27
2019-05-09T13:02:00.955Z,94711.44
2019-05-09T13:04:32.576Z,94699.92
2019-05-09T13:07:01.973Z,94692.64
2019-05-09T13:09:34.595Z,94694.27
2019-05-09T13:12:08.456Z,94688.38
2019-05-09T13:14:38.007Z,94702.19
2019-05-09T13:17:30.066Z,94693.55
2019-05-09T13:20:01.737Z,94701.48
2019-05-09T13:22:31.092Z,94552.69
2019-05-09T13:25:02.831Z,94687.79
2019-05-09T13:27:32.203Z,94691.09
2019-05-09T13:30:02.394Z,94690.09
2019-05-09T13:32:31.860Z,94671.56
2019-05-09T13:35:01.217Z,94664.61
2019-05-09T13:37:30.629Z,94668.13
2019-05-09T13:39:59.965Z,94667.91
2019-05-09T13:42:29.384Z,94664.33
2019-05-09T13:44:58.758Z,94657.36
2019-05-09T13:47:29.252Z,94653.45
2019-05-09T13:49:59.225Z,94653.62
2019-05-09T13:52:29.601Z,94656.08
2019-05-09T13:54:59.029Z,94648.30
2019-05-09T13:57:28.417Z,94647.00
2019-05-09T13:59:58.539Z,94644.44
2019-05-09T14:02:29.523Z,94640.38
2019-05-09T14:05:01.333Z,94647.20
2019-05-09T14:07:30.729Z,94653.93
2019-05-09T14:10:00.375Z,94655.80
2019-05-09T14:12:29.716Z,94648.14
2019-05-09T14:14:59.447Z,94642.98
2019-05-09T14:17:44.661Z,94642.75
2019-05-09T14:20:00.072Z,94634.15
2019-05-09T14:22:30.255Z,94632.67
2019-05-09T14:25:02.165Z,94630.91
2019-05-09T14:27:31.868Z,94640.78
2019-05-09T14:30:01.265Z,94634.59
2019-05-09T14:32:34.809Z,94633.94
2019-05-09T14:35:02.479Z,94630.26
2019-05-09T14:37:32.233Z,94621.77
2019-05-09T14:40:04.340Z,94624.81
2019-05-09T14:42:32.668Z,94627.20
2019-05-09T14:45:02.387Z,94624.73
2019-05-09T14:47:32.057Z,94628.67
2019-05-09T14:50:01.909Z,94625.07
2019-05-09T14:52:31.272Z,94619.55
2019-05-09T14:55:01.993Z,94617.27
2019-05-09T14:57:31.400Z,94412.61
2019-05-09T15:00:00.776Z,94617.67
2019-05-09T15:02:30.409Z,94624.46
2019-05-09T15:05:02.627Z,94633.24
2019-05-09T15:07:33.065Z,94627.25
2019-05-09T15:10:02.430Z,94624.73
2019-05-09T15:12:33.439Z,94621.86
2019-05-09T15:15:03.358Z,94627.45
2019-05-09T15:17:34.389Z,94620.09
2019-05-09T15:20:03.847Z,94617.52
2019-05-09T15:22:33.255Z,94610.25
2019-05-09T15:25:02.632Z,94599.43
2019-05-09T15:27:31.979Z,94597.49
2019-05-09T15:30:03.604Z,94600.73
2019-05-09T15:32:32.951Z,94603.64
2019-05-09T15:35:04.076Z,94607.48
2019-05-09T15:37:38.280Z,94600.98
2019-05-09T15:40:08.704Z,94602.74
2019-05-09T15:42:39.147Z,94601.12
2019-05-09T15:45:13.704Z,94602.55
2019-05-09T15:47:43.188Z,94601.17
2019-05-09T15:50:22.491Z,94601.56
2019-05-09T15:52:43.774Z,94598.41
2019-05-09T15:55:17.752Z,94606.74
2019-05-09T15:57:48.613Z,94597.45
2019-05-09T16:00:19.206Z,94583.75
2019-05-09T16:02:51.885Z,94583.48
2019-05-09T16:05:21.328Z,94574.16
2019-05-09T16:07:52.833Z,94578.78
2019-05-09T16:10:29.845Z,94582.84
2019-05-09T16:13:02.853Z,94593.36
2019-05-09T16:15:32.275Z,94588.75
2019-05-09T16:18:08.644Z,94590.39
2019-05-09T16:20:41.291Z,94590.31
2019-05-09T16:23:13.323Z,94585.27
2019-05-09T16:25:47.983Z,94591.09
2019-05-09T16:28:26.255Z,94591.17
2019-05-09T16:30:55.652Z,94583.70
2019-05-09T16:33:24.987Z,94588.69
2019-05-09T16:35:55.001Z,94592.13
2019-05-09T16:38:38.846Z,94598.02
2019-05-09T16:40:58.433Z,94583.24
2019-05-09T16:43:27.860Z,94582.37
2019-05-09T16:45:58.125Z,94589.50
2019-05-09T16:48:27.808Z,94578.64
2019-05-09T16:51:03.161Z,94583.91
2019-05-09T16:53:38.756Z,94578.28
2019-05-09T16:56:08.899Z,94586.11
2019-05-09T16:58:38.321Z,94582.90
2019-05-09T17:01:09.156Z,94586.81
2019-05-09T17:03:43.643Z,94587.97
2019-05-09T17:07:00.097Z,94589.09
2019-05-09T17:09:48.906Z,94598.14
2019-05-09T17:12:18.701Z,94600.28
2019-05-09T17:14:49.904Z,94588.07
2019-05-09T17:17:19.657Z,94594.41
2019-05-09T17:19:49.402Z,94593.52
2019-05-09T17:22:40.385Z,94596.08
2019-05-09T17:25:10.841Z,94601.70
2019-05-09T17:27:41.793Z,94605.02
2019-05-09T17:30:13.605Z,94594.45
2019-05-09T17:32:43.640Z,94599.93
2019-05-09T17:35:18.537Z,94601.69
2019-05-09T17:37:48.137Z,94598.47
2019-05-09T17:40:20.419Z,94599.53
2019-05-09T17:42:52.143Z,94596.05
2019-05-09T17:45:23.088Z,94599.90
2019-05-09T17:47:55.019Z,94598.13
2019-05-09T17:50:24.765Z,94596.03
2019-05-09T17:52:57.855Z,94583.59
2019-05-09T17:55:33.462Z,94589.69
2019-05-09T17:58:08.486Z,94582.73
2019-05-09T18:00:38.373Z,94570.17
2019-05-09T18:03:08.248Z,94563.33
2019-05-09T18:05:40.876Z,94575.41
2019-05-09T18:08:12.169Z,94568.07
2019-05-09T18:10:42.465Z,94568.39
2019-05-09T18:13:12.230Z,94565.69
2019-05-09T18:15:48.964Z,94557.64
2019-05-09T18:18:20.026Z,94552.61
2019-05-09T18:21:08.489Z,94547.54
2019-05-09T18:23:39.474Z,94554.74
2019-05-09T18:26:13.083Z,94554.09
2019-05-09T18:28:47.919Z,94548.75
2019-05-09T18:31:21.194Z,94552.67
2019-05-09T18:34:02.073Z,94553.19
2019-05-09T18:36:50.389Z,94564.45
2019-05-09T18:39:27.799Z,94575.67
2019-05-09T18:41:57.922Z,94575.58
2019-05-09T18:44:30.226Z,94577.98
2019-05-09T18:47:01.718Z,94577.98
2019-05-09T18:49:31.421Z,94585.58
2019-05-09T18:52:04.408Z,94592.81
2019-05-09T18:54:36.216Z,94598.64
2019-05-09T18:57:06.695Z,94594.13
2019-05-09T18:59:37.214Z,94596.05
2019-05-09T19:02:12.222Z,94333.34
2019-05-09T19:04:44.710Z,94588.34
2019-05-09T19:07:22.571Z,94595.88
2019-05-09T19:09:48.621Z,94587.16
2019-05-09T19:12:21.311Z,94582.67
2019-05-09T19:15:06.818Z,94578.23
2019-05-09T19:17:54.108Z,94583.20
2019-05-09T19:20:51.528Z,94587.55
2019-05-09T19:23:22.741Z,94589.55
2019-05-09T19:25:54.521Z,94590.61
2019-05-09T19:28:24.889Z,94604.55
2019-05-09T19:31:00.088Z,94604.63
2019-05-09T19:33:29.997Z,94605.02
2019-05-09T19:36:00.819Z,94612.19
2019-05-09T19:38:35.058Z,94613.74
2019-05-09T19:41:06.569Z,94609.50
2019-05-09T19:43:35.984Z,94611.34
2019-05-09T19:46:05.708Z,94602.09
2019-05-09T19:48:40.945Z,94604.13
2019-05-09T19:51:12.649Z,94597.22
2019-05-09T19:53:46.419Z,94600.84
2019-05-09T19:56:16.042Z,94591.53
2019-05-09T19:58:49.375Z,94581.59
2019-05-09T20:01:20.034Z,94579.58
2019-05-09T20:03:49.401Z,94579.35
2019-05-09T20:06:19.162Z,94584.98
2019-05-09T20:08:51.790Z,94584.05
2019-05-09T20:12:02.226Z,94586.58
2019-05-09T20:14:43.545Z,94587.02
2019-05-09T20:17:31.424Z,94580.96
2019-05-09T20:20:03.243Z,94585.16
2019-05-09T20:22:36.017Z,94584.57
2019-05-09T20:25:08.198Z,94589.79
2019-05-09T20:27:37.785Z,94605.05
2019-05-09T20:30:10.876Z,94603.80
2019-05-09T20:33:00.571Z,94609.22
2019-05-09T20:35:33.031Z,94598.54
2019-05-09T20:38:03.815Z,94595.79
2019-05-09T20:40:37.592Z,94588.84
2019-05-09T20:43:08.091Z,94582.47
2019-05-09T20:45:39.682Z,94583.45
2019-05-09T20:48:28.408Z,94582.05
2019-05-09T20:51:01.307Z,94587.57
2019-05-09T20:53:32.571Z,94588.48
2019-05-09T20:56:02.725Z,94588.06
2019-05-09T20:58:32.771Z,94584.24
2019-05-09T21:01:04.552Z,94586.22
2019-05-09T21:03:34.096Z,94579.54
2019-05-09T21:06:05.974Z,94572.33
2019-05-09T21:08:35.806Z,94563.14
2019-05-09T21:11:10.619Z,94560.95
2019-05-09T21:13:48.411Z,94564.03
2019-05-09T21:16:14.093Z,94558.39
2019-05-09T21:18:43.636Z,94554.58
2019-05-09T21:21:14.378Z,94560.76
2019-05-09T21:23:47.240Z,94560.63
2019-05-09T21:26:16.813Z,94568.48
2019-05-09T21:28:46.314Z,94567.88
2019-05-09T21:31:15.826Z,94563.56
2019-05-09T21:33:46.886Z,94565.61
2019-05-09T21:36:18.606Z,94564.03
2019-05-09T21:38:47.931Z,94565.17
2019-05-09T21:41:19.796Z,94561.01
2019-05-09T21:43:52.224Z,94565.91
2019-05-09T21:46:22.021Z,94566.02
2019-05-09T21:48:51.888Z,94563.45
2019-05-09T21:51:22.159Z,94572.59
2019-05-09T21:53:52.659Z,94564.98
2019-05-09T21:56:22.048Z,94563.22
2019-05-09T21:58:52.209Z,94572.17
2019-05-09T22:01:24.526Z,94576.63
2019-05-09T22:03:57.050Z,94568.97
2019-05-09T22:06:26.448Z,94580.41
2019-05-09T22:08:55.768Z,94575.09
2019-05-09T22:11:27.199Z,94575.81
2019-05-09T22:14:03.791Z,94576.13
2019-05-09T22:16:33.259Z,94583.89
2019-05-09T22:19:02.593Z,94588.50
2019-05-09T22:21:31.988Z,94579.39
2019-05-09T22:24:01.316Z,94564.52
2019-05-09T22:26:30.710Z,94574.66
2019-05-09T22:29:00.034Z,94569.66
2019-05-09T22:31:30.357Z,94567.27
2019-05-09T22:34:00.389Z,94563.11
2019-05-09T22:36:29.777Z,94557.52
2019-05-09T22:38:59.100Z,94552.21
2019-05-09T22:41:28.500Z,94547.48
2019-05-09T22:43:58.002Z,94538.41
2019-05-09T22:46:27.377Z,94535.48
2019-05-09T22:48:56.769Z,94534.67
2019-05-09T22:51:28.176Z,94537.44
2019-05-09T22:54:11.646Z,94529.28
2019-05-09T22:56:28.917Z,94537.92
2019-05-09T22:58:58.249Z,94540.08
2019-05-09T23:01:27.647Z,94540.31
2019-05-09T23:03:56.982Z,94537.44
2019-05-09T23:06:26.374Z,94528.23
2019-05-09T23:08:55.702Z,94522.97
2019-05-09T23:11:25.090Z,94527.57
2019-05-09T23:13:54.833Z,94524.38
2019-05-09T23:16:25.531Z,94540.18
2019-05-09T23:18:55.435Z,94527.83
2019-05-09T23:21:26.916Z,94527.19
2019-05-09T23:24:07.523Z,94522.00
2019-05-09T23:26:36.957Z,94520.35
2019-05-09T23:29:06.357Z,94519.13
2019-05-09T23:31:54.594Z,94522.92
2019-05-09T23:34:23.987Z,94522.26
2019-05-09T23:36:53.386Z,94527.06
2019-05-09T23:39:24.984Z,94519.06
2019-05-09T23:41:54.359Z,94511.53
2019-05-09T23:44:23.707Z,94512.81
2019-05-09T23:46:53.078Z,94516.72
2019-05-09T23:49:22.430Z,94518.86
2019-05-09T23:51:51.824Z,94514.69
2019-05-09T23:54:47.814Z,94498.19
2019-05-09T23:57:29.040Z,94497.44
